Time;durP1;ratioP1;P1;durP2;ratioP2;P2;SDS_P1;SDS_P2;PMS_P1;PMS_P2;Temp;Humidity;BMP_temperature;BMP_pressure;BME280_temperature;BME280_humidity;BME280_pressure;Samples;Min_cycle;Max_cycle;Signal;HPM_P1;HPM_P2
2021/08/18 00:00:06;;;;;;;9.07;8.20;;;15.20;99.90;;;;;;5049143;28;20275;-71
2021/08/18 00:02:32;;;;;;;12.33;8.50;;;15.20;99.90;;;;;;5050561;28;20295;-70
2021/08/18 00:04:59;;;;;;;9.67;8.73;;;15.20;99.90;;;;;;5050591;28;20210;-71
2021/08/18 00:07:29;;;;;;;11.77;9.23;;;15.30;99.90;;;;;;5050830;28;20234;-70
2021/08/18 00:09:57;;;;;;;9.40;8.50;;;15.20;99.90;;;;;;5050492;28;20247;-70
2021/08/18 00:12:24;;;;;;;8.73;8.00;;;15.20;99.90;;;;;;5050789;28;20215;-71
2021/08/18 00:14:51;;;;;;;9.63;8.20;;;15.20;99.90;;;;;;5050498;28;20254;-70
2021/08/18 00:17:19;;;;;;;9.80;9.07;;;15.20;99.90;;;;;;5050381;28;20279;-69
2021/08/18 00:19:46;;;;;;;10.57;8.93;;;15.10;99.90;;;;;;5050412;28;20203;-69
2021/08/18 00:22:13;;;;;;;9.50;8.70;;;15.10;99.90;;;;;;5049095;28;20201;-69
2021/08/18 00:24:40;;;;;;;11.37;8.77;;;15.10;99.90;;;;;;5050272;28;20200;-70
2021/08/18 00:27:08;;;;;;;9.97;8.93;;;15.10;99.90;;;;;;5050162;28;20212;-70
2021/08/18 00:29:35;;;;;;;9.23;8.43;;;15.10;99.90;;;;;;5049927;28;20234;-69
2021/08/18 00:32:02;;;;;;;10.17;9.30;;;15.10;99.90;;;;;;5049926;28;20317;-70
2021/08/18 00:34:29;;;;;;;9.73;8.83;;;15.10;99.90;;;;;;5049916;28;20758;-69
2021/08/18 00:36:56;;;;;;;10.03;9.13;;;15.10;99.90;;;;;;5050165;28;20208;-70
2021/08/18 00:39:23;;;;;;;10.40;9.30;;;15.00;99.90;;;;;;5050196;28;20646;-70
2021/08/18 00:41:51;;;;;;;9.30;8.50;;;15.00;99.90;;;;;;5049882;28;20236;-70
2021/08/18 00:44:19;;;;;;;10.00;8.93;;;15.00;99.90;;;;;;5046951;28;20319;-70
2021/08/18 00:46:50;;;;;;;9.83;8.90;;;15.00;99.90;;;;;;5027575;28;20276;-70
2021/08/18 00:49:19;;;;;;;9.40;8.70;;;15.00;99.90;;;;;;5030094;28;20209;-70
2021/08/18 00:51:46;;;;;;;9.30;8.43;;;15.00;99.90;;;;;;5029896;28;21027;-70
2021/08/18 00:54:13;;;;;;;10.40;9.37;;;15.00;99.90;;;;;;5029689;28;20239;-71
2021/08/18 00:56:39;;;;;;;9.77;8.77;;;15.00;99.90;;;;;;5029943;28;20227;-70
2021/08/18 00:59:07;;;;;;;10.20;9.20;;;14.90;99.90;;;;;;5029666;28;20237;-70
2021/08/18 01:01:36;;;;;;;9.97;9.00;;;14.90;99.90;;;;;;5029843;28;20332;-70
2021/08/18 01:04:03;;;;;;;10.53;9.40;;;15.00;99.90;;;;;;5029615;28;20652;-71
2021/08/18 01:06:30;;;;;;;10.53;9.57;;;15.00;99.90;;;;;;5029364;28;20300;-71
2021/08/18 01:08:57;;;;;;;10.73;9.63;;;15.00;99.90;;;;;;5029766;28;20284;-71
2021/08/18 01:11:24;;;;;;;10.37;9.50;;;15.00;99.90;;;;;;5029823;28;20216;-70
2021/08/18 01:13:51;;;;;;;10.43;9.53;;;14.90;99.90;;;;;;5029080;28;20304;-70
2021/08/18 01:16:18;;;;;;;10.37;9.47;;;14.90;99.90;;;;;;5029143;28;20689;-69
2021/08/18 01:18:46;;;;;;;10.20;9.23;;;15.00;99.90;;;;;;5029445;28;20232;-70
2021/08/18 01:21:13;;;;;;;9.90;8.90;;;15.00;99.90;;;;;;5029136;28;20268;-69
2021/08/18 01:23:40;;;;;;;9.13;8.43;;;15.00;99.90;;;;;;5029380;28;20248;-69
2021/08/18 01:26:07;;;;;;;9.10;8.30;;;15.00;99.90;;;;;;5029026;28;20299;-69
2021/08/18 01:28:35;;;;;;;10.03;9.13;;;14.90;99.90;;;;;;5029207;28;20209;-70
2021/08/18 01:31:02;;;;;;;10.23;9.33;;;15.00;99.90;;;;;;5029289;28;20813;-70
2021/08/18 01:33:29;;;;;;;10.23;9.23;;;15.00;99.90;;;;;;5028986;28;20239;-70
2021/08/18 01:35:56;;;;;;;10.47;9.47;;;15.00;99.90;;;;;;5029186;28;20262;-69
2021/08/18 01:38:23;;;;;;;9.70;8.80;;;14.90;99.90;;;;;;5029099;28;20217;-70
2021/08/18 01:40:52;;;;;;;9.60;8.70;;;15.00;99.90;;;;;;5028699;28;20742;-69
2021/08/18 01:43:20;;;;;;;9.97;9.17;;;15.00;99.90;;;;;;5028826;28;20205;-69
2021/08/18 01:45:50;;;;;;;9.67;8.87;;;14.90;99.90;;;;;;5028893;28;20232;-70
2021/08/18 01:48:18;;;;;;;9.27;8.50;;;14.90;99.90;;;;;;5028976;28;20205;-69
2021/08/18 01:50:47;;;;;;;9.47;8.57;;;14.90;99.90;;;;;;5028921;28;20213;-70
2021/08/18 01:53:16;;;;;;;9.30;8.53;;;14.90;99.90;;;;;;5028561;28;20324;-70
2021/08/18 01:55:43;;;;;;;9.53;8.73;;;14.90;99.90;;;;;;5028454;28;20225;-70
2021/08/18 01:58:10;;;;;;;9.70;8.90;;;14.90;99.90;;;;;;5028551;28;20291;-70
2021/08/18 02:00:37;;;;;;;8.90;8.20;;;14.90;99.90;;;;;;5028446;28;20721;-70
2021/08/18 02:03:06;;;;;;;9.53;8.73;;;14.80;99.90;;;;;;5028609;28;20215;-70
2021/08/18 02:05:33;;;;;;;8.50;7.80;;;14.90;99.90;;;;;;5028770;28;20233;-70
2021/08/18 02:08:04;;;;;;;8.87;8.13;;;14.90;99.90;;;;;;5028709;28;20216;-70
2021/08/18 02:10:31;;;;;;;8.87;8.07;;;14.90;99.90;;;;;;5028682;28;20212;-70
2021/08/18 02:12:58;;;;;;;8.80;8.00;;;14.90;99.90;;;;;;5028847;28;20204;-69
2021/08/18 02:15:28;;;;;;;8.13;7.40;;;14.90;99.90;;;;;;5028179;28;20255;-69
2021/08/18 02:17:55;;;;;;;9.17;8.30;;;14.90;99.90;;;;;;5028567;28;20236;-69
2021/08/18 02:20:26;;;;;;;8.47;7.77;;;14.90;99.90;;;;;;5028349;28;20204;-69
2021/08/18 02:22:54;;;;;;;9.10;8.30;;;14.80;99.90;;;;;;5028961;28;20370;-69
2021/08/18 02:25:21;;;;;;;8.77;8.07;;;14.80;99.90;;;;;;5028267;28;20731;-69
2021/08/18 02:27:48;;;;;;;8.73;7.97;;;14.80;99.90;;;;;;5028350;28;20634;-69
2021/08/18 02:30:18;;;;;;;8.87;8.07;;;14.70;99.90;;;;;;5028222;28;20281;-69
2021/08/18 02:32:45;;;;;;;9.23;8.33;;;14.70;99.90;;;;;;5028267;28;20682;-69
2021/08/18 02:35:13;;;;;;;8.90;8.03;;;14.70;99.90;;;;;;5028433;28;20207;-69
2021/08/18 02:37:43;;;;;;;8.40;7.70;;;14.60;99.90;;;;;;5028813;28;20259;-69
2021/08/18 02:40:12;;;;;;;8.77;8.00;;;14.60;99.90;;;;;;5028096;28;20209;-69
2021/08/18 02:42:39;;;;;;;8.90;8.10;;;14.60;99.90;;;;;;5028437;28;20243;-70
2021/08/18 02:45:08;;;;;;;8.70;7.97;;;14.60;99.90;;;;;;5030834;28;20278;-70
2021/08/18 02:47:35;;;;;;;8.53;7.73;;;14.60;99.90;;;;;;5032138;28;20566;-70
2021/08/18 02:50:03;;;;;;;8.83;8.13;;;14.60;99.90;;;;;;5032378;28;20299;-70
2021/08/18 02:52:30;;;;;;;8.73;8.03;;;14.60;99.90;;;;;;5032002;28;20267;-70
2021/08/18 02:54:58;;;;;;;8.50;7.70;;;14.50;99.90;;;;;;5031941;28;20680;-70
2021/08/18 02:57:25;;;;;;;8.40;7.70;;;14.60;99.90;;;;;;5031964;28;20764;-71
2021/08/18 02:59:52;;;;;;;8.67;7.87;;;14.60;99.90;;;;;;5031976;28;20264;-70
2021/08/18 03:02:19;;;;;;;8.43;7.77;;;14.60;99.90;;;;;;5031913;28;20740;-70
2021/08/18 03:04:46;;;;;;;8.97;7.77;;;14.50;99.90;;;;;;5032091;28;20307;-70
2021/08/18 03:07:13;;;;;;;7.87;7.17;;;14.60;99.90;;;;;;5031767;28;20351;-70
2021/08/18 03:09:40;;;;;;;8.40;7.73;;;14.60;99.90;;;;;;5032044;28;20280;-70
2021/08/18 03:12:09;;;;;;;8.30;7.60;;;14.60;99.90;;;;;;5031719;28;20247;-70
2021/08/18 03:14:36;;;;;;;8.50;7.70;;;14.60;99.90;;;;;;5031678;28;20212;-70
2021/08/18 03:17:03;;;;;;;8.00;7.40;;;14.60;99.90;;;;;;5032265;28;20236;-70
2021/08/18 03:19:30;;;;;;;8.17;7.40;;;14.50;99.90;;;;;;5032106;28;20288;-70
2021/08/18 03:21:57;;;;;;;8.63;7.73;;;14.50;99.90;;;;;;5031903;28;20236;-70
2021/08/18 03:24:24;;;;;;;8.13;7.43;;;14.50;99.90;;;;;;5031993;28;20577;-70
2021/08/18 03:26:51;;;;;;;8.27;7.57;;;14.50;99.90;;;;;;5031849;28;20211;-70
2021/08/18 03:29:19;;;;;;;8.43;7.73;;;14.60;99.90;;;;;;5031355;28;20295;-70
2021/08/18 03:31:46;;;;;;;8.40;7.60;;;14.50;99.90;;;;;;5031406;28;20275;-70
2021/08/18 03:34:13;;;;;;;7.93;7.33;;;14.50;99.90;;;;;;5031334;28;20295;-70
2021/08/18 03:36:40;;;;;;;8.37;7.57;;;14.50;99.90;;;;;;5031355;28;20671;-69
2021/08/18 03:39:07;;;;;;;8.33;7.53;;;14.50;99.90;;;;;;5031443;28;20304;-69
2021/08/18 03:41:34;;;;;;;8.87;8.03;;;14.50;99.90;;;;;;5031498;28;20239;-69
2021/08/18 03:44:01;;;;;;;8.27;7.57;;;14.50;99.90;;;;;;5031131;28;20248;-69
2021/08/18 03:46:29;;;;;;;8.40;7.60;;;14.50;99.90;;;;;;5031374;28;20209;-69
2021/08/18 03:48:56;;;;;;;8.67;7.87;;;14.50;99.90;;;;;;5031774;28;20241;-69
2021/08/18 03:51:23;;;;;;;9.60;7.40;;;14.40;99.90;;;;;;5031453;28;20208;-69
2021/08/18 03:53:50;;;;;;;8.53;7.73;;;14.50;99.90;;;;;;5031470;28;20225;-69
2021/08/18 03:56:17;;;;;;;8.23;7.53;;;14.50;99.90;;;;;;5030836;28;20352;-70
2021/08/18 03:58:44;;;;;;;7.97;7.37;;;14.40;99.90;;;;;;5030694;28;20980;-70
2021/08/18 04:01:11;;;;;;;9.70;8.70;;;14.50;99.90;;;;;;5030912;28;20327;-70
2021/08/18 04:03:40;;;;;;;8.40;7.70;;;14.40;99.90;;;;;;5031564;28;20304;-70
2021/08/18 04:06:08;;;;;;;8.70;8.00;;;14.40;99.90;;;;;;5031111;28;20205;-70
2021/08/18 04:08:35;;;;;;;9.13;8.33;;;14.40;99.90;;;;;;5031241;28;20287;-70
2021/08/18 04:11:05;;;;;;;7.50;6.90;;;14.40;99.90;;;;;;5031191;28;20211;-69
2021/08/18 04:13:31;;;;;;;7.80;7.20;;;14.40;99.90;;;;;;5031017;28;20209;-70
2021/08/18 04:15:58;;;;;;;8.57;7.77;;;14.50;99.90;;;;;;5030510;28;20247;-70
2021/08/18 04:18:25;;;;;;;9.03;8.23;;;14.50;99.90;;;;;;5030641;28;20645;-70
2021/08/18 04:20:54;;;;;;;8.63;7.90;;;14.50;99.90;;;;;;5030875;28;20205;-70
2021/08/18 04:23:20;;;;;;;8.70;7.97;;;14.40;99.90;;;;;;5030724;28;20288;-69
2021/08/18 04:25:47;;;;;;;8.83;7.90;;;14.40;99.90;;;;;;5030778;28;20239;-70
2021/08/18 04:28:14;;;;;;;8.70;7.83;;;14.40;99.90;;;;;;5030410;28;20292;-70
2021/08/18 04:30:41;;;;;;;8.40;7.60;;;14.40;99.90;;;;;;5030522;28;20231;-70
2021/08/18 04:33:08;;;;;;;8.53;7.83;;;14.40;99.90;;;;;;5030633;28;20342;-70
2021/08/18 04:35:35;;;;;;;8.77;7.80;;;14.40;99.90;;;;;;5030121;28;20208;-71
2021/08/18 04:38:04;;;;;;;8.57;7.77;;;14.40;99.90;;;;;;5030087;28;20217;-71
2021/08/18 04:40:31;;;;;;;8.17;7.07;;;14.30;99.90;;;;;;5030486;28;20217;-71
2021/08/18 04:42:58;;;;;;;7.80;7.10;;;14.40;99.90;;;;;;5029984;28;20772;-69
2021/08/18 04:45:25;;;;;;;7.97;7.27;;;14.30;99.90;;;;;;5029894;28;20229;-69
2021/08/18 04:47:52;;;;;;;7.00;6.40;;;14.30;99.90;;;;;;5030107;28;20284;-69
2021/08/18 04:50:20;;;;;;;7.50;6.80;;;14.30;99.90;;;;;;5029831;28;20209;-69
2021/08/18 04:52:47;;;;;;;8.83;7.40;;;14.30;99.90;;;;;;5029910;28;20229;-69
2021/08/18 04:55:16;;;;;;;7.77;7.07;;;14.20;99.90;;;;;;5030018;28;20239;-69
2021/08/18 04:57:43;;;;;;;7.67;6.97;;;14.20;99.90;;;;;;5030000;28;20213;-69
2021/08/18 05:00:10;;;;;;;8.33;7.07;;;14.20;99.90;;;;;;5029545;28;20229;-69
2021/08/18 05:02:37;;;;;;;7.00;6.40;;;14.20;99.90;;;;;;5029891;28;20240;-69
2021/08/18 05:05:06;;;;;;;7.00;6.37;;;14.20;99.90;;;;;;5029799;28;20216;-69
2021/08/18 05:07:32;;;;;;;7.23;6.60;;;14.20;99.90;;;;;;5029190;28;20212;-69
2021/08/18 05:09:59;;;;;;;7.13;6.53;;;14.20;99.90;;;;;;5029649;28;20650;-69
2021/08/18 05:12:27;;;;;;;7.60;6.97;;;14.20;99.90;;;;;;5029486;28;20228;-69
2021/08/18 05:14:54;;;;;;;8.40;7.40;;;14.20;99.90;;;;;;5029689;28;20209;-69
2021/08/18 05:17:20;;;;;;;7.50;6.90;;;14.10;99.90;;;;;;5029461;28;20254;-69
2021/08/18 05:19:47;;;;;;;7.67;7.07;;;14.20;99.90;;;;;;5029527;28;21070;-70
2021/08/18 05:22:14;;;;;;;7.90;7.20;;;14.30;99.90;;;;;;5029364;28;20260;-70
2021/08/18 05:24:41;;;;;;;6.83;6.23;;;14.30;99.90;;;;;;5029575;28;20294;-70
2021/08/18 05:27:07;;;;;;;7.10;6.40;;;14.30;99.90;;;;;;5029617;28;20236;-70
2021/08/18 05:29:35;;;;;;;7.20;6.50;;;14.40;99.90;;;;;;5029185;28;20353;-70
2021/08/18 05:32:02;;;;;;;6.93;6.43;;;14.40;99.90;;;;;;5029485;28;20221;-70
2021/08/18 05:34:29;;;;;;;6.83;6.33;;;14.50;99.90;;;;;;5029295;28;20306;-70
2021/08/18 05:36:55;;;;;;;9.40;7.07;;;14.60;99.90;;;;;;5028921;28;20613;-69
2021/08/18 05:39:22;;;;;;;6.93;6.40;;;14.60;99.90;;;;;;5029102;28;20211;-70
2021/08/18 05:41:48;;;;;;;7.43;6.73;;;14.60;99.90;;;;;;5029161;28;20275;-70
2021/08/18 05:44:15;;;;;;;7.13;6.53;;;14.60;99.90;;;;;;5028950;28;20205;-70
2021/08/18 05:46:43;;;;;;;6.50;5.90;;;14.60;99.90;;;;;;5029238;28;20212;-70
2021/08/18 05:49:10;;;;;;;6.77;6.27;;;14.60;99.90;;;;;;5029262;28;20212;-70
2021/08/18 05:51:36;;;;;;;6.27;5.77;;;14.60;99.90;;;;;;5028625;28;20212;-69
2021/08/18 05:54:03;;;;;;;7.07;6.23;;;14.60;99.90;;;;;;5028898;28;20249;-69
2021/08/18 05:56:29;;;;;;;7.30;6.53;;;14.60;99.90;;;;;;5028832;28;20225;-70
2021/08/18 05:58:56;;;;;;;6.93;6.23;;;14.50;99.90;;;;;;5028623;28;20294;-71
2021/08/18 06:01:23;;;;;;;7.03;5.93;;;14.60;99.90;;;;;;5028629;28;20209;-71
2021/08/18 06:03:51;;;;;;;6.20;5.70;;;14.60;99.90;;;;;;5028387;28;20236;-69
2021/08/18 06:06:17;;;;;;;6.57;6.07;;;14.60;99.90;;;;;;5029874;28;20208;-68
2021/08/18 06:08:44;;;;;;;6.20;5.70;;;14.70;99.90;;;;;;5028325;28;20644;-70
2021/08/18 06:11:11;;;;;;;6.03;5.53;;;14.70;99.90;;;;;;5028548;28;20683;-70
2021/08/18 06:13:37;;;;;;;6.60;6.00;;;14.70;99.90;;;;;;5028598;28;20298;-68
2021/08/18 06:16:05;;;;;;;6.67;5.80;;;14.70;99.90;;;;;;5028711;28;20205;-68
2021/08/18 06:18:31;;;;;;;5.73;5.33;;;14.80;99.90;;;;;;5027890;28;20259;-68
2021/08/18 06:20:59;;;;;;;5.90;5.40;;;14.80;99.90;;;;;;5028633;28;20263;-70
2021/08/18 06:23:29;;;;;;;5.70;5.20;;;14.90;99.90;;;;;;5028528;28;20228;-69
2021/08/18 06:25:55;;;;;;;6.00;5.50;;;14.90;99.90;;;;;;5028129;28;20201;-69
2021/08/18 06:28:22;;;;;;;5.47;5.07;;;15.00;99.90;;;;;;5028183;28;20204;-69
2021/08/18 06:30:49;;;;;;;5.60;5.10;;;15.00;99.90;;;;;;5028249;28;20290;-69
2021/08/18 06:33:16;;;;;;;5.70;5.20;;;15.10;99.90;;;;;;5028447;28;20243;-69
2021/08/18 06:35:42;;;;;;;4.83;4.43;;;15.10;99.90;;;;;;5028578;28;20676;-69
2021/08/18 06:38:11;;;;;;;4.90;4.50;;;15.10;99.90;;;;;;5028385;28;20248;-69
2021/08/18 06:40:37;;;;;;;4.73;4.33;;;15.20;99.90;;;;;;5028051;28;20705;-69
2021/08/18 06:43:04;;;;;;;4.70;4.30;;;15.20;99.90;;;;;;5028578;28;20233;-69
2021/08/18 06:45:31;;;;;;;5.97;4.00;;;15.30;99.90;;;;;;5028324;28;20236;-69
2021/08/18 06:47:58;;;;;;;6.07;4.20;;;15.40;99.90;;;;;;5028420;28;20209;-69
2021/08/18 06:50:24;;;;;;;4.33;3.93;;;15.40;99.90;;;;;;5028377;28;20749;-69
2021/08/18 06:52:51;;;;;;;4.67;4.30;;;15.50;99.90;;;;;;5028268;28;20224;-69
2021/08/18 06:55:19;;;;;;;6.67;4.40;;;15.50;99.90;;;;;;5028073;28;20237;-69
2021/08/18 06:57:46;;;;;;;5.10;4.30;;;15.50;99.90;;;;;;5028048;28;20684;-69
2021/08/18 07:00:14;;;;;;;4.47;4.17;;;15.60;99.90;;;;;;5027529;28;20240;-69
2021/08/18 07:02:42;;;;;;;6.73;4.20;;;15.60;99.90;;;;;;5027983;28;20279;-69
2021/08/18 07:05:10;;;;;;;5.63;3.93;;;15.70;99.90;;;;;;5028048;28;20209;-69
2021/08/18 07:07:40;;;;;;;4.30;4.00;;;15.80;99.90;;;;;;5027922;28;20213;-69
2021/08/18 07:10:08;;;;;;;4.53;4.13;;;15.90;99.90;;;;;;5035201;28;20197;-70
2021/08/18 07:12:36;;;;;;;4.10;3.57;;;15.90;99.90;;;;;;5028043;28;20711;-71
2021/08/18 07:15:03;;;;;;;4.97;4.37;;;16.00;99.90;;;;;;5027746;28;20209;-71
2021/08/18 07:17:30;;;;;;;4.33;3.93;;;16.00;99.90;;;;;;5027820;28;20201;-69
2021/08/18 07:19:56;;;;;;;3.87;3.57;;;16.10;99.90;;;;;;5027921;28;20212;-71
2021/08/18 07:22:23;;;;;;;5.90;4.20;;;16.10;99.90;;;;;;5027782;28;20387;-71
2021/08/18 07:24:50;;;;;;;3.80;3.50;;;16.10;99.90;;;;;;5027961;28;20232;-71
2021/08/18 07:27:17;;;;;;;4.13;3.63;;;16.10;99.90;;;;;;5028072;28;20208;-71
2021/08/18 07:29:44;;;;;;;3.97;3.67;;;16.20;99.90;;;;;;5027294;28;20672;-71
2021/08/18 07:32:11;;;;;;;6.10;3.60;;;16.10;99.90;;;;;;5031398;28;20611;-71
2021/08/18 07:34:38;;;;;;;4.00;3.60;;;16.20;99.90;;;;;;5031488;28;20204;-71
2021/08/18 07:37:05;;;;;;;4.07;3.77;;;16.20;99.90;;;;;;5031550;28;20350;-71
2021/08/18 07:39:31;;;;;;;3.80;3.50;;;16.20;99.90;;;;;;5031023;28;21070;-71
2021/08/18 07:41:58;;;;;;;3.83;3.20;;;16.20;99.90;;;;;;5031122;28;20263;-71
2021/08/18 07:44:24;;;;;;;3.80;3.50;;;16.20;99.90;;;;;;5031073;28;20236;-72
2021/08/18 07:46:53;;;;;;;3.70;3.40;;;16.20;99.90;;;;;;5031352;28;20240;-71
2021/08/18 07:49:20;;;;;;;3.80;2.97;;;16.20;99.90;;;;;;5031101;28;20209;-70
2021/08/18 07:51:47;;;;;;;3.43;3.23;;;16.20;99.90;;;;;;5031308;28;20224;-71
2021/08/18 07:54:13;;;;;;;6.77;3.47;;;16.20;99.90;;;;;;5031012;28;20294;-71
2021/08/18 07:56:40;;;;;;;11.73;4.33;;;16.20;99.90;;;;;;5040985;28;20619;-69
2021/08/18 07:59:06;;;;;;;3.80;3.40;;;16.20;99.90;;;;;;5039389;28;20291;-68
2021/08/18 08:01:33;;;;;;;4.10;3.50;;;16.20;99.90;;;;;;5040975;28;20575;-69
2021/08/18 08:04:01;;;;;;;4.17;2.83;;;16.20;99.90;;;;;;5041471;28;20258;-68
2021/08/18 08:06:27;;;;;;;6.63;3.40;;;16.20;99.90;;;;;;5041740;28;20226;-69
2021/08/18 08:08:54;;;;;;;3.83;2.90;;;16.20;99.90;;;;;;5040006;28;20248;-68
2021/08/18 08:11:21;;;;;;;3.60;3.30;;;16.30;99.90;;;;;;5039608;28;20730;-70
2021/08/18 08:13:47;;;;;;;2.83;2.63;;;16.50;99.90;;;;;;5041267;28;20261;-70
2021/08/18 08:16:14;;;;;;;3.33;3.03;;;16.70;99.90;;;;;;5039816;28;20236;-70
2021/08/18 08:18:40;;;;;;;3.30;3.00;;;16.70;99.90;;;;;;5039833;28;20204;-70
2021/08/18 08:21:08;;;;;;;3.60;2.90;;;16.70;99.90;;;;;;5040919;28;20663;-70
2021/08/18 08:23:35;;;;;;;2.67;2.53;;;16.80;99.90;;;;;;5039704;28;20682;-70
2021/08/18 08:26:02;;;;;;;2.87;2.67;;;16.80;99.90;;;;;;5039664;28;20607;-69
2021/08/18 08:28:28;;;;;;;2.90;2.70;;;16.90;99.90;;;;;;5038403;28;20197;-69
2021/08/18 08:30:55;;;;;;;2.67;2.57;;;16.90;99.90;;;;;;5035001;28;20731;-69
2021/08/18 08:33:22;;;;;;;2.80;2.60;;;17.00;99.90;;;;;;5030448;28;20262;-69
2021/08/18 08:35:48;;;;;;;4.27;3.07;;;17.00;99.90;;;;;;5030422;28;20208;-69
2021/08/18 08:38:16;;;;;;;6.17;2.87;;;17.10;99.90;;;;;;5043346;28;20585;-69
2021/08/18 08:40:44;;;;;;;3.90;3.47;;;17.10;99.90;;;;;;5046554;28;20247;-69
2021/08/18 08:43:14;;;;;;;3.63;2.77;;;16.90;99.90;;;;;;5035942;28;20446;-69
2021/08/18 08:45:42;;;;;;;3.33;3.10;;;16.90;99.90;;;;;;5026451;28;20263;-69
2021/08/18 08:48:09;;;;;;;3.43;3.13;;;17.00;99.90;;;;;;5026442;28;20209;-69
2021/08/18 08:50:35;;;;;;;3.43;3.00;;;17.20;99.90;;;;;;5025908;28;20209;-69
2021/08/18 08:53:02;;;;;;;3.70;2.90;;;17.30;99.90;;;;;;5026226;28;20699;-69
2021/08/18 08:55:30;;;;;;;3.47;3.17;;;17.20;99.90;;;;;;5026110;28;20232;-69
2021/08/18 08:57:59;;;;;;;2.80;2.70;;;17.20;99.90;;;;;;5026256;28;20236;-71
2021/08/18 09:00:26;;;;;;;2.87;2.67;;;17.20;99.90;;;;;;5025629;28;20237;-71
2021/08/18 09:03:10;;;;;;;2.77;2.60;;;17.20;99.90;;;;;;5026415;28;20268;-71
2021/08/18 09:05:37;;;;;;;3.00;2.40;;;17.20;99.90;;;;;;5026101;28;20209;-72
2021/08/18 09:08:04;;;;;;;2.70;2.50;;;17.30;99.90;;;;;;5026322;28;20208;-71
2021/08/18 09:10:32;;;;;;;2.90;2.70;;;17.40;99.90;;;;;;5026207;28;20239;-71
2021/08/18 09:13:15;;;;;;;2.80;2.30;;;17.60;99.90;;;;;;5025844;28;20256;-71
2021/08/18 09:15:42;;;;;;;2.70;2.50;;;17.70;99.90;;;;;;5024427;28;20208;-71
2021/08/18 09:18:10;;;;;;;2.40;2.30;;;17.70;99.90;;;;;;5035066;28;20289;-71
2021/08/18 09:20:40;;;;;;;2.67;2.47;;;17.70;99.90;;;;;;5045507;28;20204;-71
2021/08/18 09:23:07;;;;;;;2.40;2.30;;;17.60;99.90;;;;;;5039625;28;20227;-71
2021/08/18 09:25:38;;;;;;;6.47;5.70;;;17.40;99.90;;;;;;5025300;28;20945;-71
2021/08/18 09:28:17;;;;;;;2.50;2.40;;;17.40;99.90;;;;;;5025667;28;20193;-71
2021/08/18 09:30:45;;;;;;;5.10;4.70;;;17.40;99.90;;;;;;5025201;28;20231;-71
2021/08/18 09:33:14;;;;;;;2.50;2.40;;;17.40;99.90;;;;;;5033763;28;20247;-71
2021/08/18 09:35:42;;;;;;;2.70;2.50;;;17.40;99.90;;;;;;5045308;28;20251;-71
2021/08/18 09:38:10;;;;;;;2.10;2.00;;;17.40;99.90;;;;;;5045062;28;20239;-71
2021/08/18 09:40:41;;;;;;;2.40;2.20;;;17.40;99.90;;;;;;5045107;28;20236;-71
2021/08/18 09:43:10;;;;;;;2.67;2.47;;;17.60;99.90;;;;;;5041059;28;20250;-71
2021/08/18 09:45:39;;;;;;;2.73;2.00;;;17.70;99.90;;;;;;5045464;28;20265;-71
2021/08/18 09:48:08;;;;;;;2.40;2.20;;;17.80;99.90;;;;;;5032025;28;20209;-71
2021/08/18 09:50:49;;;;;;;2.57;2.47;;;18.00;99.90;;;;;;5025136;28;20243;-71
2021/08/18 09:53:18;;;;;;;2.37;2.27;;;18.10;99.90;;;;;;5041571;28;20690;-72
2021/08/18 09:55:58;;;;;;;2.83;2.63;;;18.00;99.90;;;;;;5038446;28;20434;-71
2021/08/18 09:58:28;;;;;;;2.50;2.30;;;18.00;99.90;;;;;;5031345;28;20753;-71
2021/08/18 10:00:56;;;;;;;4.10;2.27;;;18.10;99.90;;;;;;5033653;28;20196;-72
2021/08/18 10:03:23;;;;;;;2.30;2.00;;;18.30;99.90;;;;;;5025478;28;20702;-72
2021/08/18 10:05:50;;;;;;;2.57;2.20;;;18.50;99.90;;;;;;5034283;28;20250;-72
2021/08/18 10:08:19;;;;;;;2.80;2.60;;;18.60;99.90;;;;;;5035437;28;20305;-72
2021/08/18 10:10:46;;;;;;;2.13;2.03;;;18.60;99.90;;;;;;5038194;28;20204;-71
2021/08/18 10:13:15;;;;;;;2.57;2.30;;;18.70;99.90;;;;;;5039631;28;20204;-71
2021/08/18 10:15:42;;;;;;;1.87;1.77;;;18.70;99.90;;;;;;5040910;28;20701;-71
2021/08/18 10:18:10;;;;;;;2.30;2.10;;;18.80;99.90;;;;;;5044883;28;20291;-71
2021/08/18 10:20:38;;;;;;;2.27;1.97;;;19.00;99.90;;;;;;5044505;28;20236;-72
2021/08/18 10:23:07;;;;;;;1.93;1.83;;;19.00;99.90;;;;;;5040370;28;20269;-72
2021/08/18 10:25:46;;;;;;;3.27;2.23;;;19.20;99.90;;;;;;5034772;28;20237;-71
2021/08/18 10:28:16;;;;;;;2.23;2.07;;;19.40;99.90;;;;;;5024913;28;20209;-71
2021/08/18 10:30:51;;;;;;;1.90;1.80;;;19.40;99.90;;;;;;5024353;28;20302;-71
2021/08/18 10:33:55;;;;;;;2.33;2.20;;;19.40;99.90;;;;;;5024567;28;20216;-71
2021/08/18 10:37:01;;;;;;;3.03;1.87;;;19.70;99.90;;;;;;5040536;28;20628;-72
2021/08/18 10:39:37;;;;;;;2.00;1.73;;;19.60;99.90;;;;;;5043196;28;20208;-72
2021/08/18 10:42:07;;;;;;;3.73;1.90;;;19.50;99.90;;;;;;5039170;28;20776;-72
2021/08/18 10:44:40;;;;;;;2.30;2.10;;;19.20;99.90;;;;;;5041381;28;21083;-71
2021/08/18 10:47:15;;;;;;;1.93;1.83;;;19.10;99.90;;;;;;5029481;28;20201;-71
2021/08/18 10:49:42;;;;;;;2.30;2.10;;;19.10;99.90;;;;;;5024980;28;20212;-71
2021/08/18 10:52:09;;;;;;;2.00;1.90;;;19.20;99.90;;;;;;5026334;28;20264;-71
2021/08/18 10:54:46;;;;;;;2.00;1.90;;;19.40;99.90;;;;;;5024863;28;20232;-71
2021/08/18 10:57:36;;;;;;;2.30;2.10;;;19.50;99.90;;;;;;5024933;28;20274;-72
2021/08/18 11:00:13;;;;;;;2.37;1.90;;;19.40;99.90;;;;;;5024045;28;20246;-72
2021/08/18 11:02:51;;;;;;;3.03;2.47;;;19.30;99.90;;;;;;5024983;28;20251;-72
2021/08/18 11:05:19;;;;;;;2.67;2.10;;;19.30;99.90;;;;;;5025677;28;20216;-72
2021/08/18 11:08:02;;;;;;;4.67;1.97;;;19.30;99.90;;;;;;5029278;28;20219;-71
2021/08/18 11:10:29;;;;;;;2.43;1.97;;;19.20;99.90;;;;;;5029170;28;20204;-71
2021/08/18 11:12:57;;;;;;;3.70;2.07;;;19.20;99.90;;;;;;5028631;28;20200;-72
2021/08/18 11:15:55;;;;;;;3.80;2.13;;;19.10;99.90;;;;;;5031957;28;20236;-71
2021/08/18 11:18:23;;;;;;;2.13;1.97;;;19.10;99.90;;;;;;5028116;28;20212;-72
2021/08/18 11:20:53;;;;;;;3.60;2.27;;;19.10;99.90;;;;;;5028325;28;20209;-71
2021/08/18 11:23:33;;;;;;;2.80;1.90;;;19.10;99.90;;;;;;5028615;28;20284;-71
2021/08/18 11:26:02;;;;;;;2.47;2.00;;;19.20;99.90;;;;;;5028627;28;20200;-72
2021/08/18 11:28:32;;;;;;;4.20;2.37;;;19.10;99.90;;;;;;5028852;28;20208;-72
2021/08/18 11:31:02;;;;;;;2.10;2.00;;;19.10;99.90;;;;;;5028327;28;20707;-71
2021/08/18 11:33:30;;;;;;;2.50;2.30;;;19.10;99.90;;;;;;5028679;28;20232;-72
2021/08/18 11:35:57;;;;;;;3.67;2.30;;;19.00;99.90;;;;;;5028433;28;20211;-71
2021/08/18 11:38:24;;;;;;;2.30;2.10;;;19.10;99.90;;;;;;5028807;28;20286;-71
2021/08/18 11:40:53;;;;;;;2.53;2.33;;;19.10;99.90;;;;;;5028411;28;20244;-71
2021/08/18 11:43:42;;;;;;;3.10;2.13;;;19.20;99.90;;;;;;5027689;28;20201;-71
2021/08/18 11:46:11;;;;;;;3.00;2.43;;;19.20;99.90;;;;;;5027912;28;20922;-71
2021/08/18 11:48:38;;;;;;;2.50;2.30;;;19.20;99.90;;;;;;5028034;28;20204;-71
2021/08/18 11:51:10;;;;;;;3.10;2.40;;;19.20;99.90;;;;;;5028420;28;20314;-71
2021/08/18 11:53:37;;;;;;;3.67;2.67;;;19.20;99.90;;;;;;5028051;28;20205;-71
2021/08/18 11:56:05;;;;;;;2.23;2.13;;;19.10;99.90;;;;;;5028515;28;20267;-71
2021/08/18 11:58:35;;;;;;;2.63;2.43;;;19.00;99.90;;;;;;5027900;28;20213;-72
2021/08/18 12:01:04;;;;;;;2.87;2.57;;;18.90;99.90;;;;;;5028085;28;20296;-72
2021/08/18 12:03:32;;;;;;;3.73;2.30;;;18.90;99.90;;;;;;5027819;28;20204;-71
2021/08/18 12:06:01;;;;;;;2.47;2.07;;;18.80;99.90;;;;;;5027649;28;20607;-71
2021/08/18 12:08:36;;;;;;;2.40;2.20;;;18.80;99.90;;;;;;5027859;28;20663;-71
2021/08/18 12:11:04;;;;;;;2.27;2.17;;;18.70;99.90;;;;;;5027818;28;20208;-71
2021/08/18 12:13:43;;;;;;;1.97;1.87;;;18.70;99.90;;;;;;5027337;28;20205;-71
2021/08/18 12:16:25;;;;;;;2.83;2.60;;;18.70;99.90;;;;;;5032746;28;20196;-71
2021/08/18 12:18:55;;;;;;;2.43;2.23;;;18.70;99.90;;;;;;5025046;28;20274;-71
2021/08/18 12:21:23;;;;;;;3.40;2.20;;;18.70;99.90;;;;;;5028197;28;20302;-71
2021/08/18 12:23:51;;;;;;;2.23;1.93;;;18.70;99.90;;;;;;5027504;28;20240;-71
2021/08/18 12:26:31;;;;;;;3.50;1.90;;;18.70;99.90;;;;;;5027236;28;20209;-70
2021/08/18 12:28:59;;;;;;;1.80;1.70;;;18.70;99.90;;;;;;5027545;28;20236;-71
2021/08/18 12:31:27;;;;;;;3.37;2.00;;;18.70;99.90;;;;;;5027434;28;20259;-70
2021/08/18 12:34:09;;;;;;;3.03;1.80;;;18.70;99.90;;;;;;5027562;28;20710;-71
2021/08/18 12:36:36;;;;;;;2.13;1.80;;;18.60;99.90;;;;;;5027052;28;20209;-71
2021/08/18 12:39:04;;;;;;;1.90;1.80;;;18.50;99.90;;;;;;5027318;28;20232;-71
2021/08/18 12:41:34;;;;;;;1.80;1.70;;;18.50;99.90;;;;;;5027279;28;20633;-71
2021/08/18 12:44:08;;;;;;;1.90;1.80;;;18.50;99.90;;;;;;5027221;28;20238;-71
2021/08/18 12:46:36;;;;;;;2.77;1.50;;;18.60;99.90;;;;;;5026702;28;20243;-71
2021/08/18 12:49:26;;;;;;;1.97;1.87;;;18.60;99.90;;;;;;5026920;28;20236;-71
2021/08/18 12:51:53;;;;;;;3.23;1.73;;;18.60;99.90;;;;;;5026683;28;20231;-70